Andes, New York
Current Conditions -  °F | °C
As of 5:55 AM on Friday 21 Nov 2014 (Local Time) from KMSV Reporting Station
Clear Clear  
Wind Chill: -15°   Ceiling: Unl
Heat Index: -8°   Visibility: 10mi
Dew Point: -12°   Wind: 10mph
Humidity: 73%   Direction: 280°W
Pressure: 30.06"   Gusts: NA
Location:  42.19°N, 74.79°W
Report Text: KMSV 211055Z AUTO 28009KT 10SM CLR M08/M12 A3006 RMK AO1
Loading
Personal Weather Stations






























Interactive Weather Map New forecast layout! Learn more

10-Day Weather Forecast

Advertisements
Track Severe Weather on mobile